createdAt,value
2022-09-07T00:00:23.284Z,11.80
2022-09-07T00:03:25.502Z,11.13
2022-09-07T00:06:27.693Z,12.05
2022-09-07T00:09:29.747Z,10.27
2022-09-07T00:12:31.779Z,11.93
2022-09-07T00:15:34.067Z,14.45
2022-09-07T00:18:36.193Z,10.27
2022-09-07T00:21:38.255Z,11.43
2022-09-07T00:24:40.271Z,10.45
2022-09-07T00:27:42.299Z,10.50
2022-09-07T00:30:44.352Z,9.98
2022-09-07T00:33:48.046Z,8.63
2022-09-07T00:36:50.054Z,10.85
2022-09-07T00:39:52.589Z,8.95
2022-09-07T00:42:54.718Z,11.18
2022-09-07T00:45:56.727Z,15.05
2022-09-07T00:49:05.891Z,10.33
2022-09-07T00:52:09.000Z,10.65
2022-09-07T00:55:12.186Z,12.80
2022-09-07T00:58:14.409Z,10.82
2022-09-07T01:01:17.387Z,12.35
2022-09-07T01:04:20.132Z,12.33
2022-09-07T01:07:22.218Z,12.13
2022-09-07T01:10:25.940Z,12.00
2022-09-07T01:13:28.150Z,11.85
2022-09-07T01:16:40.761Z,13.38
2022-09-07T01:19:45.858Z,13.90
2022-09-07T01:22:53.919Z,14.20
2022-09-07T01:26:16.806Z,15.50
2022-09-07T01:29:18.851Z,13.20
2022-09-07T01:32:26.664Z,13.20
2022-09-07T01:35:40.580Z,19.63
2022-09-07T01:38:56.188Z,15.15
2022-09-07T01:41:59.434Z,11.88
2022-09-07T01:45:02.470Z,16.10
2022-09-07T01:48:05.543Z,14.57
2022-09-07T01:51:07.591Z,11.80
2022-09-07T01:54:15.102Z,14.95
2022-09-07T01:57:19.703Z,13.70
2022-09-07T02:00:21.772Z,15.55
2022-09-07T02:03:39.706Z,17.13
2022-09-07T02:06:53.237Z,19.47
2022-09-07T02:10:01.074Z,16.25
2022-09-07T02:13:12.889Z,17.17
2022-09-07T02:16:16.437Z,13.85
2022-09-07T02:19:19.280Z,14.23
2022-09-07T02:22:25.170Z,14.40
2022-09-07T02:25:29.551Z,15.75
2022-09-07T02:28:35.924Z,15.07
2022-09-07T02:31:38.249Z,18.20
2022-09-07T02:34:40.367Z,15.25
2022-09-07T02:37:43.766Z,17.30
2022-09-07T02:40:55.959Z,20.13
2022-09-07T02:43:58.203Z,18.55
2022-09-07T02:47:06.677Z,18.25
2022-09-07T02:50:18.383Z,19.40
2022-09-07T02:53:32.415Z,20.50
2022-09-07T02:56:52.978Z,18.17
2022-09-07T03:00:10.762Z,17.73
2022-09-07T03:03:23.675Z,19.10
2022-09-07T03:06:25.661Z,16.77
2022-09-07T03:09:30.537Z,18.63
2022-09-07T03:12:44.871Z,20.15
2022-09-07T03:15:46.937Z,21.63
2022-09-07T03:18:49.218Z,16.70
2022-09-07T03:21:51.344Z,15.98
2022-09-07T03:24:53.356Z,15.93
2022-09-07T03:27:55.379Z,19.48
2022-09-07T03:30:57.411Z,19.35
2022-09-07T03:33:59.490Z,16.13
2022-09-07T03:37:01.603Z,18.08
2022-09-07T03:40:04.766Z,18.97
2022-09-07T03:43:06.983Z,17.33
2022-09-07T03:46:10.558Z,17.23
2022-09-07T03:49:12.739Z,16.80
2022-09-07T03:52:14.837Z,16.80
2022-09-07T03:55:16.910Z,17.00
2022-09-07T03:58:18.931Z,21.45
2022-09-07T04:01:23.003Z,17.73
2022-09-07T04:04:25.070Z,17.15
2022-09-07T04:07:27.095Z,18.60
2022-09-07T04:10:29.140Z,16.13
2022-09-07T04:13:31.603Z,19.13
2022-09-07T04:16:33.781Z,17.10
2022-09-07T04:19:35.973Z,20.42
2022-09-07T04:22:37.989Z,20.25
2022-09-07T04:25:47.113Z,20.57
2022-09-07T04:28:49.614Z,23.83
2022-09-07T04:31:51.652Z,23.63
2022-09-07T04:34:54.487Z,19.65
2022-09-07T04:37:56.591Z,27.77
2022-09-07T04:41:02.636Z,21.83
2022-09-07T04:44:05.018Z,19.48
2022-09-07T04:47:07.186Z,15.50
2022-09-07T04:50:09.535Z,17.45
2022-09-07T04:53:11.543Z,20.05
2022-09-07T04:56:16.869Z,20.83
2022-09-07T04:59:19.287Z,19.77
2022-09-07T05:02:21.359Z,20.58
2022-09-07T05:05:23.482Z,17.85
2022-09-07T05:08:25.530Z,19.38
2022-09-07T05:11:29.373Z,17.70
2022-09-07T05:14:31.824Z,17.45
2022-09-07T05:17:33.952Z,17.77
2022-09-07T05:20:35.997Z,19.15
2022-09-07T05:23:38.374Z,18.63
2022-09-07T05:26:40.492Z,16.77
2022-09-07T05:33:05.749Z,16.85
2022-09-07T05:36:08.371Z,16.20
2022-09-07T05:39:10.879Z,22.13
2022-09-07T05:42:13.287Z,16.57
2022-09-07T05:45:15.933Z,16.45
2022-09-07T05:48:18.196Z,22.90
2022-09-07T05:51:20.914Z,17.13
2022-09-07T05:54:23.826Z,17.73
2022-09-07T05:57:26.111Z,14.43
2022-09-07T06:00:29.182Z,22.27
2022-09-07T06:03:31.679Z,17.73
2022-09-07T06:06:36.379Z,17.58
2022-09-07T06:13:01.330Z,14.57
2022-09-07T06:16:04.298Z,16.13
2022-09-07T06:19:07.174Z,17.02
2022-09-07T06:22:09.477Z,13.38
2022-09-07T06:25:11.551Z,16.15
2022-09-07T06:28:13.640Z,15.07
2022-09-07T06:31:19.731Z,14.25
2022-09-07T06:34:22.959Z,16.67
2022-09-07T06:37:25.040Z,12.82
2022-09-07T06:40:27.212Z,16.73
2022-09-07T06:43:29.481Z,14.80
2022-09-07T06:49:54.368Z,14.40
2022-09-07T06:56:20.171Z,17.95
2022-09-07T06:59:22.375Z,18.37
2022-09-07T07:02:24.474Z,14.77
2022-09-07T07:05:26.761Z,16.40
2022-09-07T07:08:28.952Z,14.48
2022-09-07T07:11:34.098Z,14.15
2022-09-07T07:14:39.562Z,21.33
2022-09-07T07:17:46.924Z,14.75
2022-09-07T07:20:51.417Z,12.52
2022-09-07T07:23:54.152Z,11.45
2022-09-07T07:26:56.579Z,12.98
2022-09-07T07:29:58.939Z,13.00
2022-09-07T07:33:01.186Z,12.75
2022-09-07T07:36:26.802Z,13.20
2022-09-07T07:42:50.994Z,13.18
2022-09-07T07:45:55.894Z,13.43
2022-09-07T07:48:58.839Z,13.30
2022-09-07T07:58:46.437Z,10.45
2022-09-07T08:01:48.750Z,15.93
2022-09-07T08:04:51.407Z,10.70
2022-09-07T08:07:53.961Z,13.70
2022-09-07T08:10:55.987Z,11.30
2022-09-07T08:14:00.367Z,12.95
2022-09-07T08:17:02.995Z,12.70
2022-09-07T08:20:05.222Z,11.70
2022-09-07T08:23:10.897Z,11.27
2022-09-07T08:26:13.036Z,9.73
2022-09-07T08:29:15.591Z,10.57
2022-09-07T08:32:19.189Z,11.47
2022-09-07T08:35:21.873Z,10.02
2022-09-07T08:38:23.977Z,15.27
2022-09-07T08:41:27.111Z,18.27
2022-09-07T08:44:44.978Z,12.70
2022-09-07T08:47:51.187Z,9.87
2022-09-07T08:50:59.589Z,13.90
2022-09-07T08:54:01.936Z,9.63
2022-09-07T09:00:26.960Z,13.93
2022-09-07T09:03:30.992Z,11.37
2022-09-07T09:06:52.674Z,10.13
2022-09-07T09:10:10.299Z,11.63
2022-09-07T09:13:12.393Z,12.43
2022-09-07T09:16:18.801Z,11.05
2022-09-07T09:19:30.579Z,11.80
2022-09-07T09:22:32.652Z,11.68
2022-09-07T09:25:36.710Z,12.10
2022-09-07T09:28:39.374Z,12.85
2022-09-07T09:31:42.207Z,12.23
2022-09-07T09:34:59.898Z,15.03
2022-09-07T09:38:05.707Z,13.45
2022-09-07T09:41:11.929Z,13.02
2022-09-07T09:44:16.275Z,10.95
2022-09-07T09:47:38.627Z,13.55
2022-09-07T09:54:24.623Z,14.82
2022-09-07T09:59:04.839Z,13.32
2022-09-07T10:01:24.858Z,12.15
2022-09-07T10:04:33.918Z,13.73
2022-09-07T10:07:35.991Z,11.80
2022-09-07T10:10:38.012Z,11.43
2022-09-07T10:13:44.640Z,12.60
2022-09-07T10:16:46.843Z,11.40
2022-09-07T10:19:49.713Z,12.07
2022-09-07T10:22:51.820Z,11.53
2022-09-07T10:25:55.399Z,11.75
2022-09-07T10:29:13.099Z,12.88
2022-09-07T10:32:36.481Z,11.98
2022-09-07T10:36:01.491Z,12.35
2022-09-07T10:39:08.389Z,11.87
2022-09-07T10:42:26.047Z,12.45
2022-09-07T10:45:43.568Z,13.07
2022-09-07T10:49:04.182Z,12.25
2022-09-07T10:52:09.391Z,12.85
2022-09-07T10:55:17.407Z,13.47
2022-09-07T11:02:14.745Z,13.52
2022-09-07T11:05:19.520Z,13.88
2022-09-07T11:08:24.374Z,14.55
2022-09-07T11:14:58.605Z,12.73
2022-09-07T11:18:07.283Z,14.60
2022-09-07T11:21:14.662Z,12.93
2022-09-07T11:24:28.789Z,12.18
2022-09-07T11:27:40.873Z,12.60
2022-09-07T11:30:46.517Z,12.88
2022-09-07T11:37:22.213Z,12.50
2022-09-07T11:40:24.161Z,12.38
2022-09-07T11:43:30.388Z,10.87
2022-09-07T11:46:49.795Z,13.80
2022-09-07T11:49:58.610Z,13.82
2022-09-07T11:53:06.932Z,14.15
2022-09-07T11:56:14.400Z,13.15
2022-09-07T11:59:48.975Z,13.77
2022-09-07T12:03:09.558Z,13.48
2022-09-07T12:06:30.060Z,12.40
2022-09-07T12:09:35.314Z,13.18
2022-09-07T12:13:03.482Z,13.65
2022-09-07T12:16:44.050Z,10.87
2022-09-07T12:19:46.262Z,12.80
2022-09-07T12:23:05.484Z,11.02
2022-09-07T12:26:26.526Z,11.63
2022-09-07T12:29:29.785Z,12.18
2022-09-07T12:33:04.588Z,10.53
2022-09-07T12:36:25.458Z,11.48
2022-09-07T12:39:28.920Z,12.07
2022-09-07T12:42:32.539Z,12.43
2022-09-07T12:45:37.511Z,13.60
2022-09-07T12:48:46.742Z,13.97
2022-09-07T12:52:06.880Z,17.45
2022-09-07T12:59:21.586Z,13.02
2022-09-07T13:02:35.846Z,12.02
2022-09-07T13:05:51.731Z,10.97
2022-09-07T13:09:04.292Z,12.18
2022-09-07T13:16:06.677Z,12.85
2022-09-07T13:19:13.221Z,12.65
2022-09-07T13:22:30.423Z,12.63
2022-09-07T13:25:32.551Z,12.48
2022-09-07T13:28:56.172Z,11.30
2022-09-07T13:33:07.859Z,12.48
2022-09-07T13:35:48.975Z,12.63
2022-09-07T13:38:51.976Z,11.50
2022-09-07T13:41:56.182Z,12.15
2022-09-07T13:45:02.512Z,12.00
2022-09-07T13:48:27.552Z,13.45
2022-09-07T13:51:34.105Z,11.18
2022-09-07T13:54:54.891Z,12.30
2022-09-07T13:57:59.635Z,10.90
2022-09-07T14:01:04.929Z,10.60
2022-09-07T14:04:09.315Z,10.07
2022-09-07T14:07:30.785Z,16.08
2022-09-07T14:10:32.734Z,8.57
2022-09-07T14:13:34.719Z,9.35
2022-09-07T14:16:36.858Z,9.75
2022-09-07T14:19:45.148Z,10.48
2022-09-07T14:22:51.980Z,10.07
2022-09-07T14:26:16.633Z,10.30
2022-09-07T14:29:21.915Z,10.20
2022-09-07T14:32:24.970Z,10.38
2022-09-07T14:35:28.887Z,9.80
2022-09-07T14:41:57.586Z,10.27
2022-09-07T14:45:18.305Z,10.43
2022-09-07T14:48:29.245Z,10.27
2022-09-07T14:51:36.668Z,9.30
2022-09-07T14:54:39.751Z,9.82
2022-09-07T14:57:41.681Z,9.87
2022-09-07T15:01:36.764Z,10.00
2022-09-07T15:04:17.699Z,9.80
2022-09-07T15:07:39.177Z,10.15
2022-09-07T15:10:41.616Z,12.85
2022-09-07T15:13:45.344Z,12.07
2022-09-07T15:20:37.111Z,10.48
2022-09-07T15:23:39.160Z,10.20
2022-09-07T15:27:04.298Z,11.68
2022-09-07T15:30:06.688Z,9.60
2022-09-07T15:33:09.053Z,12.48
2022-09-07T15:36:13.113Z,13.70
2022-09-07T15:39:25.719Z,9.95
2022-09-07T15:45:51.267Z,12.50
2022-09-07T15:48:54.594Z,10.00
2022-09-07T15:52:05.064Z,10.20
2022-09-07T15:55:08.781Z,9.38
2022-09-07T15:58:12.216Z,12.13
2022-09-07T16:04:38.562Z,10.77
2022-09-07T16:11:18.644Z,10.73
2022-09-07T16:14:20.875Z,15.65
2022-09-07T16:17:27.422Z,9.97
2022-09-07T16:20:41.092Z,14.20
2022-09-07T16:23:47.912Z,11.20
2022-09-07T16:26:49.861Z,14.02
2022-09-07T16:29:52.462Z,11.15
2022-09-07T16:32:54.396Z,11.90
2022-09-07T16:35:59.936Z,13.98
2022-09-07T16:39:02.170Z,11.60
2022-09-07T16:42:04.462Z,13.27
2022-09-07T16:48:29.452Z,13.67
2022-09-07T16:51:31.421Z,18.02
2022-09-07T16:54:33.338Z,13.70
2022-09-07T17:00:57.693Z,13.80
2022-09-07T17:04:00.258Z,16.60
2022-09-07T17:07:02.402Z,17.00
2022-09-07T17:10:04.530Z,22.30
2022-09-07T17:13:09.349Z,19.70
2022-09-07T17:16:15.674Z,17.02
2022-09-07T17:19:33.307Z,25.50
2022-09-07T17:22:35.353Z,22.42
2022-09-07T17:25:37.992Z,16.58
2022-09-07T17:28:40.630Z,15.07
2022-09-07T17:35:05.375Z,16.57
2022-09-07T17:41:33.281Z,15.82
2022-09-07T17:44:38.004Z,16.20
2022-09-07T17:47:40.313Z,19.40
2022-09-07T17:50:42.772Z,14.63
2022-09-07T17:53:45.605Z,17.88
2022-09-07T17:56:47.844Z,19.02
2022-09-07T18:03:12.874Z,18.10
2022-09-07T18:06:14.874Z,22.77
2022-09-07T18:09:16.905Z,21.65
2022-09-07T18:12:18.832Z,20.17
2022-09-07T18:15:22.205Z,17.50
2022-09-07T18:18:24.248Z,21.05
2022-09-07T18:21:30.994Z,21.50
2022-09-07T18:24:36.434Z,19.05
2022-09-07T18:27:39.480Z,18.83
2022-09-07T18:30:42.791Z,17.33
2022-09-07T18:33:44.722Z,20.35
2022-09-07T18:36:46.709Z,18.20
2022-09-07T18:39:48.872Z,16.55
2022-09-07T18:42:52.615Z,18.23
2022-09-07T18:46:00.258Z,19.85
2022-09-07T18:49:02.246Z,18.63
2022-09-07T18:55:27.543Z,18.90
2022-09-07T18:58:29.874Z,19.65
2022-09-07T19:01:32.201Z,20.75
2022-09-07T19:07:56.155Z,20.37
2022-09-07T19:11:08.098Z,20.83
2022-09-07T19:14:10.121Z,22.60
2022-09-07T19:17:12.094Z,19.45
2022-09-07T19:20:14.074Z,18.88
2022-09-07T19:23:16.000Z,22.03
2022-09-07T19:26:17.944Z,19.90
2022-09-07T19:29:20.131Z,19.52
2022-09-07T19:32:22.109Z,19.88
2022-09-07T19:35:24.032Z,18.15
2022-09-07T19:38:26.009Z,17.70
2022-09-07T19:41:28.349Z,18.80
2022-09-07T19:44:30.632Z,21.30
2022-09-07T19:47:33.548Z,21.25
2022-09-07T19:50:35.535Z,21.88
2022-09-07T19:53:39.096Z,18.37
2022-09-07T19:56:42.763Z,17.92
2022-09-07T19:59:45.698Z,18.27
2022-09-07T20:02:48.480Z,18.45
2022-09-07T20:05:50.456Z,19.67
2022-09-07T20:08:52.464Z,16.93
2022-09-07T20:11:54.462Z,23.92
2022-09-07T20:14:56.419Z,18.80
2022-09-07T20:17:59.226Z,17.48
2022-09-07T20:21:05.143Z,17.13
2022-09-07T20:24:07.086Z,18.10
2022-09-07T20:27:09.260Z,19.63
2022-09-07T20:30:11.421Z,20.90
2022-09-07T20:33:13.381Z,19.67
2022-09-07T20:36:17.364Z,19.20
2022-09-07T20:39:20.355Z,21.53
2022-09-07T20:42:22.364Z,18.88
2022-09-07T20:45:27.434Z,16.40
2022-09-07T20:48:31.842Z,15.98
2022-09-07T20:51:33.802Z,17.25
2022-09-07T20:54:37.699Z,18.10
2022-09-07T20:57:39.615Z,16.88
2022-09-07T21:00:42.389Z,17.23
2022-09-07T21:03:49.070Z,18.30
2022-09-07T21:06:51.429Z,17.55
2022-09-07T21:09:53.507Z,21.83
2022-09-07T21:12:55.472Z,17.50
2022-09-07T21:15:57.427Z,17.48
2022-09-07T21:19:00.528Z,17.30
2022-09-07T21:22:02.490Z,20.85
2022-09-07T21:25:04.626Z,18.20
2022-09-07T21:28:06.559Z,19.33
2022-09-07T21:31:08.995Z,17.90
2022-09-07T21:34:11.162Z,21.52
2022-09-07T21:37:13.080Z,18.67
2022-09-07T21:40:15.178Z,19.00
2022-09-07T21:43:17.401Z,20.25
2022-09-07T21:46:19.451Z,23.10
2022-09-07T21:49:21.577Z,20.42
2022-09-07T21:52:23.700Z,19.98
2022-09-07T21:55:25.603Z,20.43
2022-09-07T21:58:28.492Z,19.10
2022-09-07T22:01:30.934Z,21.15
2022-09-07T22:04:32.987Z,17.30
2022-09-07T22:07:35.028Z,20.85
2022-09-07T22:10:36.991Z,18.83
2022-09-07T22:13:39.632Z,20.98
2022-09-07T22:16:41.687Z,18.92
2022-09-07T22:19:45.071Z,18.40
2022-09-07T22:22:47.106Z,16.77
2022-09-07T22:25:53.008Z,22.13
2022-09-07T22:28:55.312Z,18.90
2022-09-07T22:31:57.315Z,18.75
2022-09-07T22:34:59.297Z,18.35
2022-09-07T22:38:01.308Z,19.23
2022-09-07T22:41:07.216Z,19.10
2022-09-07T22:44:13.243Z,18.42
2022-09-07T22:47:15.655Z,18.40
2022-09-07T22:50:17.616Z,16.83
2022-09-07T22:53:19.525Z,16.67
2022-09-07T22:56:29.055Z,16.77
2022-09-07T22:59:31.033Z,15.65
2022-09-07T23:02:32.991Z,14.48
2022-09-07T23:05:37.707Z,16.50
2022-09-07T23:08:39.883Z,14.57
2022-09-07T23:11:42.016Z,15.73
2022-09-07T23:14:43.963Z,15.63
2022-09-07T23:17:45.946Z,16.70
2022-09-07T23:20:47.877Z,16.63
2022-09-07T23:23:51.264Z,15.68
2022-09-07T23:26:53.293Z,17.07
2022-09-07T23:29:55.209Z,15.95
2022-09-07T23:32:57.380Z,18.17
2022-09-07T23:36:00.579Z,19.27
2022-09-07T23:39:02.644Z,17.67
2022-09-07T23:42:04.665Z,19.33
2022-09-07T23:45:08.156Z,18.13
2022-09-07T23:48:10.092Z,19.58
2022-09-07T23:51:12.164Z,19.42
2022-09-07T23:54:14.129Z,19.73
2022-09-07T23:57:16.197Z,19.77
